ADDS METAR Data INFO
IDs: Format: Raw Decoded Include TAF

Data at: 1155 UTC 23 Jun 2018

KCIN 231135Z AUTO 24003KT 3SM BR CLR 15/15 A2980 RMK AO2
KCIN 231115Z AUTO 00000KT 5SM BR CLR 15/15 A2979 RMK AO2
KCIN 231055Z AUTO 00000KT 2SM BR CLR 14/14 A2979 RMK AO2
KCIN 231035Z AUTO 00000KT 1 1/4SM BR FEW045 SCT055 14/14 A2978 RMK AO2 VIS 3/4V3
KCIN 231015Z AUTO 00000KT 5SM BR FEW045 BKN055 15/15 A2978 RMK AO2
KCIN 230955Z AUTO 00000KT 5SM BR FEW042 FEW049 OVC060 15/15 A2979 RMK AO2
KCIN 230935Z AUTO 00000KT 5SM BR SCT041 BKN048 OVC065 15/15 A2979 RMK AO2
KCIN 230915Z AUTO 00000KT 7SM BKN039 OVC048 16/16 A2980 RMK AO2
KCIN 230855Z AUTO 00000KT 9SM BKN039 OVC050 16/16 A2981 RMK AO2
KCIN 230835Z AUTO 26003KT 6SM BR OVC050 15/15 A2980 RMK AO2
KCIN 230815Z AUTO 00000KT 6SM BR OVC050 15/15 A2980 RMK AO2
KCIN 230755Z AUTO 00000KT 7SM OVC055 15/15 A2980 RMK AO2
KCIN 230735Z AUTO 29003KT 9SM OVC055 16/16 A2980 RMK AO2
KCIN 230715Z AUTO 00000KT 9SM BKN055 16/16 A2980 RMK AO2
KCIN 230655Z AUTO 00000KT 10SM BKN050 BKN060 16/16 A2981 RMK AO2
KCIN 230635Z AUTO 29003KT 8SM BKN050 BKN055 16/16 A2982 RMK AO2
KCIN 230615Z AUTO 27003KT 10SM BKN055 16/16 A2982 RMK AO2
KCIN 230555Z AUTO 28004KT 10SM SCT047 OVC060 17/16 A2983 RMK AO2
KCIN 230535Z AUTO 29003KT 10SM FEW048 OVC060 17/16 A2983 RMK AO2
KCIN 230515Z AUTO 28004KT 9SM SCT050 BKN060 17/17 A2983 RMK AO2
KCIN 230455Z AUTO 29004KT 10SM BKN050 OVC055 17/17 A2983 RMK AO2
KCIN 230435Z AUTO 00000KT 9SM SCT049 OVC060 17/17 A2983 RMK AO2
KCIN 230415Z AUTO 00000KT 10SM SCT050 OVC060 17/17 A2983 RMK AO2
KCIN 230355Z AUTO 00000KT 10SM SCT049 BKN060 18/17 A2981 RMK AO2
KCIN 230335Z AUTO 00000KT 10SM SCT046 SCT060 18/17 A2979 RMK AO2
KCIN 230315Z AUTO 09005KT 10SM BKN049 18/18 A2979 RMK AO2
KCIN 230255Z AUTO 00000KT 10SM BKN050 BKN065 19/18 A2980 RMK AO2
KCIN 230235Z AUTO 00000KT 10SM FEW050 OVC060 21/18 A2980 RMK AO2
KCIN 230215Z AUTO 00000KT 10SM FEW043 OVC060 21/18 A2980 RMK AO2
KCIN 230155Z AUTO 00000KT 10SM BKN044 OVC050 21/18 A2981 RMK AO2
KCIN 230135Z AUTO 00000KT 10SM FEW046 OVC055 21/19 A2981 RMK AO2
KCIN 230115Z AUTO 00000KT 10SM BKN055 22/19 A2981 RMK AO2
KCIN 230055Z AUTO 00000KT 10SM CLR 22/17 A2980 RMK AO2
KCIN 230035Z AUTO 09004KT 10SM CLR 22/17 A2981 RMK AO2
KCIN 230015Z AUTO 11005KT 10SM CLR 22/16 A2981 RMK AO2
KCIN 222355Z AUTO 08006KT 10SM FEW036 24/16 A2981 RMK AO2
KCIN 222335Z AUTO 06004KT 10SM CLR 23/16 A2981 RMK AO2
KCIN 222315Z AUTO 03005KT 10SM CLR 23/16 A2981 RMK AO2
KCIN 222255Z AUTO 04007KT 10SM CLR 23/17 A2982 RMK AO2
KCIN 222235Z AUTO 07006KT 10SM CLR 23/16 A2983 RMK AO2
KCIN 222215Z AUTO 06007KT 10SM CLR 23/15 A2983 RMK AO2
KCIN 222155Z AUTO 07007KT 10SM CLR 23/16 A2983 RMK AO2
KCIN 222135Z AUTO 05007KT 10SM FEW055 23/16 A2983 RMK AO2
KCIN 222115Z AUTO 06007KT 10SM BKN050 OVC055 23/16 A2984 RMK AO2
KCIN 222055Z AUTO 03005KT 10SM FEW038 BKN048 OVC055 22/17 A2985 RMK AO2
KCIN 222035Z AUTO 04007KT 10SM FEW038 SCT047 OVC060 22/17 A2985 RMK AO2
KCIN 222015Z AUTO 07007KT 10SM BKN060 BKN075 OVC120 24/15 A2986 RMK AO2
KCIN 221955Z AUTO 10009KT 10SM FEW050 OVC060 23/15 A2986 RMK AO2
KCIN 221935Z AUTO 08004KT 10SM FEW044 BKN050 OVC060 23/16 A2986 RMK AO2
KCIN 221915Z AUTO 06006KT 10SM SCT045 BKN050 OVC060 22/15 A2987 RMK AO2
KCIN 221855Z AUTO 04009KT 10SM FEW037 BKN050 OVC060 23/16 A2987 RMK AO2
KCIN 221835Z AUTO 05010KT 10SM SCT037 BKN047 OVC060 22/15 A2987 RMK AO2
KCIN 221815Z AUTO 05011KT 10SM FEW036 FEW043 BKN060 23/15 A2987 RMK AO2
KCIN 221755Z AUTO 04009KT 10SM SCT036 BKN043 OVC065 22/16 A2988 RMK AO2
KCIN 221735Z AUTO 04007G14KT 10SM FEW033 SCT041 BKN048 22/15 A2989 RMK AO2
KCIN 221715Z AUTO 04007KT 10SM FEW030 SCT043 OVC065 22/16 A2989 RMK AO2
KCIN 221655Z AUTO 05008KT 10SM OVC060 22/16 A2989 RMK AO2
KCIN 221635Z AUTO 04010KT 10SM OVC055 22/16 A2989 RMK AO2
KCIN 221615Z AUTO 04007KT 10SM OVC049 20/16 A2989 RMK AO2
KCIN 221555Z AUTO 03004KT 10SM OVC045 20/16 A2990 RMK AO2
KCIN 221535Z AUTO 05008KT 10SM OVC043 19/16 A2989 RMK AO2
KCIN 221515Z AUTO 05008KT 10SM OVC041 19/16 A2990 RMK AO2
KCIN 221455Z AUTO 05011KT 10SM SCT038 SCT046 BKN055 19/16 A2989 RMK AO2
KCIN 221435Z AUTO 04011G18KT 10SM FEW014 SCT036 BKN044 19/16 A2989 RMK AO2
KCIN 221415Z AUTO 04012KT 10SM FEW029 BKN036 OVC045 18/16 A2989 RMK AO2
KCIN 221355Z AUTO 03011KT 10SM FEW008 OVC028 17/16 A2990 RMK AO2
KCIN 221335Z AUTO 03007KT 10SM OVC024 17/16 A2990 RMK AO2
KCIN 221315Z AUTO 04007KT 8SM FEW008 OVC023 17/16 A2990 RMK AO2
KCIN 221255Z AUTO 02008KT 9SM SCT007 OVC021 17/16 A2989 RMK AO2
KCIN 221235Z AUTO 03009KT 10SM SCT008 OVC022 16/16 A2989 RMK AO2
KCIN 221215Z AUTO 03013KT 10SM BKN009 BKN013 OVC022 16/16 A2988 RMK AO2
KCIN 221155Z AUTO 03008KT 10SM BKN008 OVC018 16/16 A2989 RMK AO2
KCIN 221135Z AUTO 02011KT 10SM OVC009 16/16 A2989 RMK AO2
KCIN 221115Z AUTO 02009KT 10SM SCT007 OVC014 16/16 A2989 RMK AO2
KCIN 221055Z AUTO 36008KT 10SM OVC014 16/16 A2989 RMK AO2
KCIN 221035Z AUTO 35006KT 10SM BKN016 OVC021 16/16 A2988 RMK AO2
KCIN 221015Z AUTO 35005KT 10SM OVC021 16/15 A2988 RMK AO2
KCIN 220955Z AUTO 35005KT 10SM OVC018 16/15 A2988 RMK AO2
KCIN 220935Z AUTO 35004KT 10SM OVC017 16/15 A2988 RMK AO2
KCIN 220855Z AUTO 02005KT 10SM OVC014 16/15 A2987 RMK AO2
KCIN 220835Z AUTO 02005KT 10SM OVC013 16/15 A2987 RMK AO2
KCIN 220755Z AUTO 04009KT 9SM OVC012 15/14 A2986 RMK AO2
KCIN 220735Z AUTO 04008KT 10SM OVC011 15/14 A2987 RMK AO2
KCIN 220715Z AUTO 03007KT 10SM OVC012 15/14 A2987 RMK AO2
KCIN 220655Z AUTO 02006KT 10SM BKN015 OVC120 15/14 A2987 RMK AO2
KCIN 220635Z AUTO 03010KT 10SM BKN120 16/14 A2986 RMK AO2
KCIN 220615Z AUTO 04014KT 10SM FEW037 OVC110 16/14 A2986 RMK AO2
KCIN 220555Z AUTO 03010KT 10SM FEW014 SCT029 BKN037 17/15 A2986 RMK AO2
KCIN 220535Z AUTO 04008G14KT 10SM OVC027 17/16 A2986 RMK AO2
KCIN 220515Z AUTO 04009KT 10SM OVC025 17/16 A2987 RMK AO2
KCIN 220455Z AUTO 02008KT 10SM OVC025 17/16 A2987 RMK AO2
KCIN 220435Z AUTO 02006G11KT 10SM OVC026 17/16 A2987 RMK AO2
KCIN 220415Z AUTO 03008KT 10SM OVC025 17/16 A2988 RMK AO2
KCIN 220355Z AUTO 03008KT OVC024 16/15 A2989 RMK AO2
KCIN 220335Z AUTO 04008KT 10SM OVC024 16/15 A2989 RMK AO2
KCIN 220315Z AUTO 04009KT 10SM FEW017 OVC023 16/15 A2988 RMK AO2
KCIN 220255Z AUTO 05012G20KT 9SM SCT006 BKN012 OVC018 16/16 A2988 RMK AO2
KCIN 220235Z AUTO 04014KT 4SM BR BKN006 OVC013 17/17 A2986 RMK AO2
KCIN 220215Z AUTO 04014G20KT 3SM BR BKN006 OVC012 17/17 A2986 RMK AO2
KCIN 220155Z AUTO 03013KT 5SM BR SCT006 OVC010 17/17 A2986 RMK AO2
KCIN 220135Z AUTO 03013KT 1 1/4SM BR OVC007 17/17 A2985 RMK AO2
KCIN 220115Z AUTO 02010G18KT 4SM BR OVC010 18/17 A2984 RMK AO2
KCIN 220055Z AUTO 04012KT 10SM OVC011 18/17 A2983 RMK AO2
KCIN 220035Z AUTO 03010G18KT 10SM OVC011 19/17 A2983 RMK AO2
KCIN 220015Z AUTO 02011G18KT 10SM OVC010 19/17 A2982 RMK AO2